createdAt,value
2022-11-13T00:00:32.891Z,31.07
2022-11-13T00:03:20.254Z,29.00
2022-11-13T00:06:10.419Z,27.97
2022-11-13T00:08:57.745Z,29.53
2022-11-13T00:11:45.225Z,29.83
2022-11-13T00:14:32.524Z,26.10
2022-11-13T00:17:20.119Z,27.30
2022-11-13T00:20:10.071Z,25.32
2022-11-13T00:22:57.667Z,23.97
2022-11-13T00:25:45.252Z,25.67
2022-11-13T00:28:32.767Z,28.53
2022-11-13T00:31:20.201Z,26.43
2022-11-13T00:36:56.088Z,25.15
2022-11-13T00:39:43.639Z,23.13
2022-11-13T00:42:30.803Z,25.60
2022-11-13T00:45:18.465Z,23.95
2022-11-13T00:48:08.159Z,29.32
2022-11-13T00:50:55.821Z,25.70
2022-11-13T00:53:43.370Z,20.17
2022-11-13T00:56:31.130Z,21.10
2022-11-13T00:59:18.625Z,22.20
2022-11-13T01:02:09.985Z,21.17
2022-11-13T01:04:57.143Z,23.50
2022-11-13T01:07:45.040Z,25.67
2022-11-13T01:10:33.115Z,20.30
2022-11-13T01:13:20.425Z,21.07
2022-11-13T01:16:12.681Z,24.98
2022-11-13T01:19:00.625Z,18.30
2022-11-13T01:21:47.833Z,19.63
2022-11-13T01:24:35.090Z,19.70
2022-11-13T01:27:22.435Z,20.67
2022-11-13T01:30:12.206Z,21.45
2022-11-13T01:32:59.886Z,19.27
2022-11-13T01:35:47.300Z,20.43
2022-11-13T01:38:36.846Z,21.90
2022-11-13T01:41:32.903Z,22.25
2022-11-13T01:44:21.333Z,24.17
2022-11-13T01:47:10.259Z,23.10
2022-11-13T01:50:01.013Z,19.87
2022-11-13T01:52:48.733Z,19.03
2022-11-13T01:55:36.244Z,20.03
2022-11-13T01:58:23.564Z,21.87
2022-11-13T02:01:10.748Z,19.87
2022-11-13T02:03:58.593Z,20.20
2022-11-13T02:06:52.523Z,20.17
2022-11-13T02:09:43.242Z,22.27
2022-11-13T02:12:33.609Z,19.43
2022-11-13T02:15:24.077Z,22.30
2022-11-13T02:18:12.737Z,22.04
2022-11-13T02:21:12.601Z,24.27
2022-11-13T02:24:03.030Z,20.63
2022-11-13T02:26:53.942Z,18.17
2022-11-13T02:29:41.432Z,18.27
2022-11-13T02:32:29.135Z,20.43
2022-11-13T02:35:34.437Z,22.53
2022-11-13T02:38:21.685Z,23.07
2022-11-13T02:41:08.999Z,17.60
2022-11-13T02:43:56.943Z,23.10
2022-11-13T02:46:45.069Z,20.32
2022-11-13T02:49:32.970Z,21.20
2022-11-13T02:52:20.484Z,25.72
2022-11-13T02:55:08.883Z,22.95
2022-11-13T02:57:56.320Z,24.37
2022-11-13T03:00:44.072Z,20.37
2022-11-13T03:03:56.640Z,19.75
2022-11-13T03:06:21.381Z,22.70
2022-11-13T03:09:08.931Z,21.07
2022-11-13T03:11:56.538Z,19.40
2022-11-13T03:14:43.821Z,20.70
2022-11-13T03:17:35.061Z,21.90
2022-11-13T03:20:22.952Z,23.15
2022-11-13T03:23:10.578Z,21.85
2022-11-13T03:25:57.931Z,22.00
2022-11-13T03:28:45.663Z,28.13
2022-11-13T03:31:33.290Z,24.27
2022-11-13T03:34:20.519Z,23.33
2022-11-13T03:37:08.180Z,19.00
2022-11-13T03:39:56.217Z,19.67
2022-11-13T03:42:44.007Z,19.23
2022-11-13T03:45:32.165Z,21.33
2022-11-13T03:48:19.209Z,23.03
2022-11-13T03:51:06.491Z,22.45
2022-11-13T03:53:53.886Z,22.35
2022-11-13T03:56:41.959Z,21.00
2022-11-13T03:59:29.291Z,22.53
2022-11-13T04:02:16.535Z,20.37
2022-11-13T04:05:03.925Z,19.20
2022-11-13T04:07:51.801Z,21.57
2022-11-13T04:10:39.597Z,23.13
2022-11-13T04:13:27.281Z,21.23
2022-11-13T04:16:14.554Z,22.47
2022-11-13T04:19:01.889Z,22.60
2022-11-13T04:21:49.371Z,18.33
2022-11-13T04:24:36.809Z,19.30
2022-11-13T04:27:24.453Z,19.90
2022-11-13T04:30:13.995Z,18.80
2022-11-13T04:33:01.374Z,15.97
2022-11-13T04:35:49.122Z,18.63
2022-11-13T04:38:37.177Z,18.07
2022-11-13T04:41:42.158Z,20.27
2022-11-13T04:44:29.587Z,21.17
2022-11-13T04:47:17.811Z,20.12
2022-11-13T04:50:06.986Z,20.40
2022-11-13T04:52:54.345Z,18.60
2022-11-13T04:55:41.943Z,16.77
2022-11-13T04:58:29.530Z,14.28
2022-11-13T05:01:17.330Z,19.13
2022-11-13T05:04:06.228Z,16.60
2022-11-13T05:06:53.699Z,17.13
2022-11-13T05:09:41.238Z,18.33
2022-11-13T05:12:28.856Z,18.60
2022-11-13T05:15:15.919Z,16.40
2022-11-13T05:18:03.281Z,17.13
2022-11-13T05:20:51.035Z,16.27
2022-11-13T05:23:38.404Z,16.93
2022-11-13T05:26:26.318Z,17.60
2022-11-13T05:29:13.613Z,14.43
2022-11-13T05:32:01.053Z,19.43
2022-11-13T05:34:48.702Z,16.52
2022-11-13T05:37:36.145Z,16.83
2022-11-13T05:40:23.722Z,16.60
2022-11-13T05:43:10.949Z,16.43
2022-11-13T05:46:04.769Z,15.35
2022-11-13T05:48:58.124Z,17.53
2022-11-13T05:51:45.549Z,13.73
2022-11-13T05:54:32.846Z,15.87
2022-11-13T05:57:20.294Z,17.73
2022-11-13T06:00:08.540Z,12.90
2022-11-13T06:02:55.886Z,13.40
2022-11-13T06:05:43.551Z,13.60
2022-11-13T06:08:31.324Z,15.65
2022-11-13T06:11:21.720Z,21.03
2022-11-13T06:14:08.991Z,16.17
2022-11-13T06:16:56.537Z,19.63
2022-11-13T06:19:44.847Z,17.53
2022-11-13T06:22:32.277Z,20.70
2022-11-13T06:25:19.713Z,17.23
2022-11-13T06:28:08.136Z,17.03
2022-11-13T06:30:55.430Z,15.90
2022-11-13T06:33:43.807Z,16.27
2022-11-13T06:36:36.879Z,15.83
2022-11-13T06:39:24.611Z,20.63
2022-11-13T06:42:13.117Z,19.77
2022-11-13T06:45:00.601Z,17.27
2022-11-13T06:47:48.220Z,15.17
2022-11-13T06:50:35.680Z,21.60
2022-11-13T06:53:23.090Z,18.30
2022-11-13T06:56:12.518Z,21.73
2022-11-13T06:58:59.798Z,17.17
2022-11-13T07:01:47.131Z,21.17
2022-11-13T07:04:34.315Z,20.70
2022-11-13T07:07:22.363Z,19.53
2022-11-13T07:10:12.358Z,19.52
2022-11-13T07:13:01.201Z,22.15
2022-11-13T07:15:48.781Z,19.37
2022-11-13T07:18:36.502Z,21.10
2022-11-13T07:21:25.460Z,21.03
2022-11-13T07:24:16.933Z,19.97
2022-11-13T07:27:03.383Z,20.27
2022-11-13T07:29:50.485Z,19.80
2022-11-13T07:32:38.284Z,20.87
2022-11-13T07:35:25.644Z,17.85
2022-11-13T07:40:59.845Z,20.83
2022-11-13T07:43:47.492Z,23.70
2022-11-13T07:46:34.929Z,20.73
2022-11-13T07:49:22.475Z,21.73
2022-11-13T07:52:12.067Z,21.42
2022-11-13T07:54:59.609Z,22.10
2022-11-13T07:57:46.684Z,22.43
2022-11-13T08:00:35.977Z,23.13
2022-11-13T08:03:23.458Z,25.17
2022-11-13T08:06:13.551Z,20.54
2022-11-13T08:09:00.729Z,24.47
2022-11-13T08:11:48.391Z,22.57
2022-11-13T08:14:36.363Z,21.75
2022-11-13T08:17:24.067Z,22.33
2022-11-13T08:20:13.365Z,23.33
2022-11-13T08:23:02.535Z,27.65
2022-11-13T08:25:50.361Z,24.60
2022-11-13T08:28:38.145Z,22.27
2022-11-13T08:31:25.804Z,20.50
2022-11-13T08:34:14.603Z,25.82
2022-11-13T08:37:02.095Z,22.33
2022-11-13T08:39:50.047Z,22.98
2022-11-13T08:42:38.127Z,22.35
2022-11-13T08:45:25.665Z,20.97
2022-11-13T08:48:14.951Z,19.65
2022-11-13T08:51:02.635Z,20.63
2022-11-13T08:53:50.233Z,19.83
2022-11-13T08:56:38.168Z,19.77
2022-11-13T08:59:27.163Z,20.90
2022-11-13T09:02:16.976Z,24.02
2022-11-13T09:05:05.398Z,17.60
2022-11-13T09:07:54.958Z,16.52
2022-11-13T09:10:43.010Z,17.75
2022-11-13T09:13:30.485Z,15.83
2022-11-13T09:16:18.138Z,17.20
2022-11-13T09:19:05.749Z,18.03
2022-11-13T09:21:53.589Z,14.00
2022-11-13T09:24:40.960Z,18.63
2022-11-13T09:27:29.280Z,13.05
2022-11-13T09:30:18.086Z,11.55
2022-11-13T09:33:05.929Z,13.37
2022-11-13T09:35:53.032Z,10.67
2022-11-13T09:38:40.717Z,11.35
2022-11-13T09:41:31.263Z,13.80
2022-11-13T09:44:41.418Z,8.20
2022-11-13T09:47:40.783Z,12.67
2022-11-13T09:50:31.104Z,12.47
2022-11-13T09:53:19.393Z,9.10
2022-11-13T09:56:18.789Z,13.20
2022-11-13T09:59:12.192Z,11.78
2022-11-13T10:02:37.007Z,16.53
2022-11-13T10:05:30.054Z,9.50
2022-11-13T10:08:25.802Z,11.37
2022-11-13T10:11:28.244Z,9.87
2022-11-13T10:14:24.402Z,11.07
2022-11-13T10:17:26.649Z,10.72
2022-11-13T10:20:18.898Z,9.70
2022-11-13T10:23:14.778Z,8.13
2022-11-13T10:26:20.254Z,8.63
2022-11-13T10:29:16.680Z,9.83
2022-11-13T10:32:27.719Z,10.07
2022-11-13T10:35:26.914Z,8.63
2022-11-13T10:38:19.618Z,6.83
2022-11-13T10:41:09.991Z,7.72
2022-11-13T10:44:05.999Z,5.97
2022-11-13T10:47:05.043Z,4.35
2022-11-13T10:49:53.207Z,5.87
2022-11-13T10:52:46.136Z,5.70
2022-11-13T10:55:41.704Z,9.60
2022-11-13T10:58:29.867Z,13.88
2022-11-13T11:01:23.674Z,13.60
2022-11-13T11:04:30.081Z,11.12
2022-11-13T11:07:25.192Z,5.50
2022-11-13T11:10:24.740Z,2.90
2022-11-13T11:13:15.533Z,3.45
2022-11-13T11:16:05.269Z,3.57
2022-11-13T11:18:59.079Z,6.75
2022-11-13T11:21:48.684Z,9.37
2022-11-13T11:24:39.371Z,11.07
2022-11-13T11:27:32.687Z,9.20
2022-11-13T11:30:22.685Z,8.20
2022-11-13T11:33:27.860Z,6.47
2022-11-13T11:36:33.350Z,4.23
2022-11-13T11:39:32.678Z,3.45
2022-11-13T11:42:41.121Z,4.08
2022-11-13T11:45:31.678Z,3.03
2022-11-13T11:48:31.747Z,3.08
2022-11-13T11:51:28.754Z,3.77
2022-11-13T11:54:42.120Z,4.87
2022-11-13T11:57:48.959Z,3.70
2022-11-13T12:00:39.570Z,6.78
2022-11-13T12:03:47.686Z,8.53
2022-11-13T12:06:43.763Z,4.15
2022-11-13T12:09:33.939Z,7.07
2022-11-13T12:12:43.417Z,5.80
2022-11-13T12:15:42.379Z,3.70
2022-11-13T12:18:48.522Z,4.40
2022-11-13T12:21:39.376Z,4.08
2022-11-13T12:24:50.149Z,4.90
2022-11-13T12:27:46.356Z,6.67
2022-11-13T12:30:36.621Z,5.20
2022-11-13T12:33:39.158Z,4.43
2022-11-13T12:36:26.576Z,6.90
2022-11-13T12:39:19.797Z,4.73
2022-11-13T12:42:19.560Z,5.08
2022-11-13T12:45:17.381Z,4.53
2022-11-13T12:48:13.104Z,5.17
2022-11-13T12:51:09.303Z,4.37
2022-11-13T12:53:57.557Z,4.10
2022-11-13T12:56:45.916Z,3.85
2022-11-13T12:59:36.546Z,4.43
2022-11-13T13:03:00.625Z,5.80
2022-11-13T13:05:53.990Z,4.07
2022-11-13T13:09:00.234Z,2.55
2022-11-13T13:12:13.282Z,2.40
2022-11-13T13:15:06.818Z,2.42
2022-11-13T13:18:12.245Z,4.33
2022-11-13T13:21:03.083Z,3.15
2022-11-13T13:23:53.373Z,3.47
2022-11-13T13:26:47.899Z,5.07
2022-11-13T13:29:35.344Z,3.10
2022-11-13T13:32:26.020Z,5.57
2022-11-13T13:35:22.726Z,2.17
2022-11-13T13:38:16.381Z,2.77
2022-11-13T13:41:22.578Z,2.70
2022-11-13T13:44:21.953Z,3.80
2022-11-13T13:47:29.577Z,3.80
2022-11-13T13:53:13.581Z,4.62
2022-11-13T13:56:02.498Z,3.70
2022-11-13T13:58:50.914Z,2.40
2022-11-13T14:01:38.665Z,4.30
2022-11-13T14:04:28.957Z,2.10
2022-11-13T14:07:28.443Z,4.13
2022-11-13T14:10:20.125Z,4.33
2022-11-13T14:13:11.278Z,4.67
2022-11-13T14:16:03.022Z,4.43
2022-11-13T14:18:50.898Z,3.27
2022-11-13T14:21:38.527Z,4.37
2022-11-13T14:24:29.068Z,3.42
2022-11-13T14:27:22.544Z,4.45
2022-11-13T14:30:12.842Z,3.30
2022-11-13T14:33:02.467Z,4.70
2022-11-13T14:35:55.328Z,4.93
2022-11-13T14:38:51.572Z,4.15
2022-11-13T14:41:40.519Z,2.73
2022-11-13T14:44:33.023Z,2.57
2022-11-13T14:47:27.064Z,4.03
2022-11-13T14:50:27.171Z,4.97
2022-11-13T14:53:14.774Z,4.67
2022-11-13T14:56:11.472Z,4.63
2022-11-13T14:59:19.743Z,8.30
2022-11-13T15:02:06.889Z,7.03
2022-11-13T15:04:53.992Z,7.60
2022-11-13T15:07:46.108Z,5.30
2022-11-13T15:10:33.758Z,3.90
2022-11-13T15:13:21.117Z,4.43
2022-11-13T15:16:10.337Z,4.03
2022-11-13T15:19:03.386Z,4.05
2022-11-13T15:22:20.275Z,4.00
2022-11-13T15:24:40.066Z,10.23
2022-11-13T15:27:28.194Z,4.47
2022-11-13T15:30:19.451Z,4.48
2022-11-13T15:33:14.661Z,9.70
2022-11-13T15:36:02.091Z,7.80
2022-11-13T15:38:49.760Z,6.90
2022-11-13T15:41:37.610Z,5.30
2022-11-13T15:44:25.029Z,8.47
2022-11-13T15:47:27.315Z,6.37
2022-11-13T15:50:17.169Z,6.18
2022-11-13T15:53:05.630Z,7.53
2022-11-13T15:55:53.614Z,8.18
2022-11-13T15:58:40.708Z,7.75
2022-11-13T16:01:28.313Z,11.87
2022-11-13T16:04:16.759Z,9.67
2022-11-13T16:07:04.042Z,10.35
2022-11-13T16:09:51.368Z,8.50
2022-11-13T16:12:38.912Z,9.53
2022-11-13T16:15:26.667Z,11.67
2022-11-13T16:18:17.512Z,9.47
2022-11-13T16:21:04.908Z,8.57
2022-11-13T16:23:52.393Z,11.00
2022-11-13T16:26:41.653Z,11.17
2022-11-13T16:29:30.810Z,11.27
2022-11-13T16:32:18.955Z,12.63
2022-11-13T16:35:09.552Z,17.97
2022-11-13T16:37:57.004Z,14.13
2022-11-13T16:40:45.538Z,12.90
2022-11-13T16:43:33.104Z,20.00
2022-11-13T16:46:23.617Z,12.87
2022-11-13T16:49:16.894Z,11.30
2022-11-13T16:52:04.329Z,11.93
2022-11-13T16:54:51.663Z,15.35
2022-11-13T16:57:39.201Z,11.13
2022-11-13T17:00:29.313Z,11.75
2022-11-13T17:03:16.862Z,13.20
2022-11-13T17:06:05.783Z,13.32
2022-11-13T17:08:55.614Z,14.30
2022-11-13T17:11:42.944Z,11.60
2022-11-13T17:14:30.512Z,12.60
2022-11-13T17:17:18.232Z,12.60
2022-11-13T17:20:05.906Z,13.03
2022-11-13T17:22:53.529Z,17.50
2022-11-13T17:25:41.138Z,27.07
2022-11-13T17:28:28.489Z,23.87
2022-11-13T17:31:16.123Z,20.68
2022-11-13T17:34:03.617Z,19.47
2022-11-13T17:36:51.140Z,15.80
2022-11-13T17:39:38.730Z,18.67
2022-11-13T17:42:28.075Z,19.17
2022-11-13T17:45:15.500Z,17.63
2022-11-13T17:48:02.700Z,16.40
2022-11-13T17:51:00.887Z,18.03
2022-11-13T17:53:48.301Z,18.80
2022-11-13T17:56:37.557Z,17.53
2022-11-13T17:59:25.057Z,16.07
2022-11-13T18:02:13.567Z,16.60
2022-11-13T18:05:01.409Z,14.80
2022-11-13T18:07:48.987Z,12.00
2022-11-13T18:10:37.861Z,12.77
2022-11-13T18:13:25.318Z,16.13
2022-11-13T18:16:18.787Z,11.98
2022-11-13T18:19:09.170Z,13.07
2022-11-13T18:21:56.348Z,15.13
2022-11-13T18:24:44.272Z,17.37
2022-11-13T18:27:31.945Z,17.23
2022-11-13T18:30:20.164Z,17.40
2022-11-13T18:33:07.389Z,17.00
2022-11-13T18:35:56.673Z,17.93
2022-11-13T18:38:44.383Z,16.63
2022-11-13T18:41:32.780Z,16.00
2022-11-13T18:44:20.122Z,46.70
2022-11-13T18:47:08.056Z,22.48
2022-11-13T18:49:55.520Z,22.70
2022-11-13T18:52:43.297Z,17.62
2022-11-13T18:55:30.483Z,17.57
2022-11-13T18:58:17.864Z,16.35
2022-11-13T19:04:21.776Z,17.75
2022-11-13T19:06:50.243Z,17.77
2022-11-13T19:09:39.471Z,17.93
2022-11-13T19:12:27.133Z,16.65
2022-11-13T19:15:14.990Z,15.72
2022-11-13T19:18:02.566Z,14.43
2022-11-13T19:20:50.086Z,15.27
2022-11-13T19:23:38.006Z,19.70
2022-11-13T19:26:26.072Z,16.70
2022-11-13T19:29:13.785Z,18.57
2022-11-13T19:32:01.657Z,19.10
2022-11-13T19:34:48.970Z,17.43
2022-11-13T19:37:36.933Z,16.23
2022-11-13T19:40:24.156Z,14.63
2022-11-13T19:43:11.335Z,14.83
2022-11-13T19:46:00.807Z,14.67
2022-11-13T19:48:50.300Z,16.30
2022-11-13T19:51:37.542Z,13.40
2022-11-13T19:54:24.559Z,14.43
2022-11-13T19:57:12.329Z,15.43
2022-11-13T19:59:59.974Z,16.17
2022-11-13T20:02:47.711Z,15.00
2022-11-13T20:05:34.786Z,16.25
2022-11-13T20:08:26.839Z,14.77
2022-11-13T20:11:14.883Z,16.05
2022-11-13T20:14:02.358Z,14.73
2022-11-13T20:16:49.495Z,15.73
2022-11-13T20:19:37.300Z,16.12
2022-11-13T20:22:24.834Z,20.20
2022-11-13T20:25:12.444Z,14.70
2022-11-13T20:28:00.208Z,15.20
2022-11-13T20:33:35.178Z,18.52
2022-11-13T20:36:23.143Z,15.93
2022-11-13T20:39:11.058Z,17.10
2022-11-13T20:41:58.640Z,15.50
2022-11-13T20:44:46.369Z,19.00
2022-11-13T20:47:35.145Z,16.87
2022-11-13T20:50:22.630Z,14.93
2022-11-13T20:53:10.470Z,17.50
2022-11-13T20:55:58.102Z,18.30
2022-11-13T20:58:45.402Z,15.40
2022-11-13T21:01:34.678Z,15.33
2022-11-13T21:04:22.167Z,14.47
2022-11-13T21:07:09.638Z,17.90
2022-11-13T21:09:57.166Z,17.97
2022-11-13T21:12:44.537Z,14.07
2022-11-13T21:15:33.830Z,18.07
2022-11-13T21:18:21.436Z,19.67
2022-11-13T21:21:11.859Z,14.80
2022-11-13T21:23:59.907Z,15.20
2022-11-13T21:26:49.901Z,15.80
2022-11-13T21:29:37.677Z,17.40
2022-11-13T21:32:24.716Z,19.93
2022-11-13T21:35:12.379Z,18.20
2022-11-13T21:37:59.686Z,15.63
2022-11-13T21:40:48.943Z,20.83
2022-11-13T21:43:36.412Z,18.57
2022-11-13T21:46:25.520Z,18.47
2022-11-13T21:49:14.040Z,17.13
2022-11-13T21:52:01.624Z,14.17
2022-11-13T21:54:49.216Z,16.63
2022-11-13T21:57:36.641Z,14.80
2022-11-13T22:00:24.225Z,19.06
2022-11-13T22:03:11.559Z,16.13
2022-11-13T22:06:19.555Z,18.47
2022-11-13T22:09:15.599Z,18.85
2022-11-13T22:12:03.315Z,16.60
2022-11-13T22:14:50.676Z,16.80
2022-11-13T22:20:24.508Z,16.30
2022-11-13T22:23:12.150Z,19.70
2022-11-13T22:26:01.977Z,16.13
2022-11-13T22:28:50.147Z,18.10
2022-11-13T22:31:38.209Z,16.57
2022-11-13T22:34:25.555Z,20.13
2022-11-13T22:37:13.093Z,17.35
2022-11-13T22:40:00.442Z,17.87
2022-11-13T22:42:47.607Z,16.57
2022-11-13T22:45:35.389Z,17.37
2022-11-13T22:48:22.500Z,17.07
2022-11-13T22:51:15.481Z,20.40
2022-11-13T22:54:04.486Z,16.53
2022-11-13T22:56:52.055Z,18.20
2022-11-13T22:59:39.559Z,16.40
2022-11-13T23:02:26.731Z,18.55
2022-11-13T23:05:14.041Z,18.25
2022-11-13T23:08:01.819Z,17.40
2022-11-13T23:13:46.605Z,22.13
2022-11-13T23:16:34.699Z,16.13
2022-11-13T23:19:22.268Z,15.77
2022-11-13T23:22:09.537Z,20.33
2022-11-13T23:24:56.782Z,16.70
2022-11-13T23:27:43.931Z,18.47
2022-11-13T23:30:31.227Z,16.30
2022-11-13T23:33:18.638Z,17.43
2022-11-13T23:36:09.770Z,16.52
2022-11-13T23:38:56.931Z,17.25
2022-11-13T23:41:44.251Z,17.13
2022-11-13T23:44:31.613Z,17.57
2022-11-13T23:47:19.272Z,17.25
2022-11-13T23:50:08.418Z,16.97
2022-11-13T23:52:55.926Z,20.17
2022-11-13T23:55:44.160Z,20.73
2022-11-13T23:58:32.686Z,17.80
